createdAt,value
2019-05-30T00:00:18.038Z,100.00
2019-05-30T00:02:49.338Z,100.00
2019-05-30T00:05:20.718Z,100.00
2019-05-30T00:07:51.489Z,100.00
2019-05-30T00:10:22.327Z,100.00
2019-05-30T00:12:54.584Z,100.00
2019-05-30T00:15:25.673Z,100.00
2019-05-30T00:17:56.953Z,100.00
2019-05-30T00:20:28.066Z,100.00
2019-05-30T00:22:59.100Z,100.00
2019-05-30T00:25:29.898Z,100.00
2019-05-30T00:28:01.408Z,100.00
2019-05-30T00:30:32.227Z,100.00
2019-05-30T00:33:03.863Z,100.00
2019-05-30T00:35:35.949Z,100.00
2019-05-30T00:38:06.881Z,100.00
2019-05-30T00:40:37.816Z,100.00
2019-05-30T00:43:08.939Z,100.00
2019-05-30T00:45:40.293Z,100.00
2019-05-30T00:48:12.060Z,100.00
2019-05-30T00:50:43.096Z,100.00
2019-05-30T00:53:14.235Z,100.00
2019-05-30T00:55:45.255Z,100.00
2019-05-30T00:58:16.197Z,100.00
2019-05-30T01:00:47.283Z,100.00
2019-05-30T01:03:18.098Z,100.00
2019-05-30T01:05:48.893Z,100.00
2019-05-30T01:08:19.773Z,100.00
2019-05-30T01:10:51.046Z,100.00
2019-05-30T01:13:22.428Z,100.00
2019-05-30T01:15:53.728Z,100.00
2019-05-30T01:18:24.881Z,100.00
2019-05-30T01:20:57.012Z,100.00
2019-05-30T01:23:27.825Z,100.00
2019-05-30T01:25:59.295Z,100.00
2019-05-30T01:28:30.257Z,100.00
2019-05-30T01:31:07.340Z,100.00
2019-05-30T01:33:34.816Z,100.00
2019-05-30T01:36:05.868Z,100.00
2019-05-30T01:38:36.903Z,100.00
2019-05-30T01:41:08.115Z,100.00
2019-05-30T01:43:38.949Z,100.00
2019-05-30T01:46:10.375Z,100.00
2019-05-30T01:48:41.181Z,100.00
2019-05-30T01:51:12.043Z,100.00
2019-05-30T01:53:42.913Z,100.00
2019-05-30T01:56:13.768Z,100.00
2019-05-30T01:58:44.571Z,100.00
2019-05-30T02:01:24.336Z,100.00
2019-05-30T02:03:47.857Z,100.00
2019-05-30T02:06:18.948Z,100.00
2019-05-30T02:08:49.749Z,100.00
2019-05-30T02:11:20.863Z,100.00
2019-05-30T02:13:53.418Z,100.00
2019-05-30T02:16:24.214Z,100.00
2019-05-30T02:18:55.016Z,100.00
2019-05-30T02:21:26.054Z,100.00
2019-05-30T02:23:57.132Z,100.00
2019-05-30T02:26:28.166Z,100.00
2019-05-30T02:28:59.960Z,100.00
2019-05-30T02:31:39.083Z,100.00
2019-05-30T02:34:07.619Z,100.00
2019-05-30T02:36:38.752Z,100.00
2019-05-30T02:39:10.312Z,100.00
2019-05-30T02:41:43.175Z,100.00
2019-05-30T02:44:14.375Z,100.00
2019-05-30T02:46:45.485Z,100.00
2019-05-30T02:49:16.374Z,100.00
2019-05-30T02:51:47.186Z,100.00
2019-05-30T02:54:18.551Z,100.00
2019-05-30T02:56:49.521Z,100.00
2019-05-30T02:59:20.392Z,100.00
2019-05-30T03:02:00.796Z,100.00
2019-05-30T03:04:24.252Z,100.00
2019-05-30T03:06:55.127Z,100.00
2019-05-30T03:09:25.989Z,100.00
2019-05-30T03:11:57.099Z,100.00
2019-05-30T03:14:27.977Z,100.00
2019-05-30T03:16:59.315Z,100.00
2019-05-30T03:19:30.426Z,100.00
2019-05-30T03:22:03.366Z,100.00
2019-05-30T03:24:34.846Z,100.00
2019-05-30T03:27:07.072Z,100.00
2019-05-30T03:29:38.884Z,100.00
2019-05-30T03:32:57.499Z,100.00
2019-05-30T03:34:43.518Z,100.00
2019-05-30T03:37:26.471Z,100.00
2019-05-30T03:39:46.937Z,100.00
2019-05-30T03:42:17.842Z,100.00
2019-05-30T03:44:48.713Z,100.00
2019-05-30T03:47:20.035Z,100.00
2019-05-30T03:49:51.420Z,100.00
2019-05-30T03:52:23.712Z,100.00
2019-05-30T03:54:54.946Z,100.00
2019-05-30T03:57:30.537Z,100.00
2019-05-30T04:00:05.998Z,100.00
2019-05-30T04:02:57.069Z,100.00
2019-05-30T04:05:22.477Z,100.00
2019-05-30T04:07:55.272Z,100.00
2019-05-30T04:10:29.077Z,100.00
2019-05-30T04:13:12.263Z,100.00
2019-05-30T04:15:43.818Z,100.00
2019-05-30T04:18:16.417Z,100.00
2019-05-30T04:20:48.804Z,100.00
2019-05-30T04:23:19.716Z,100.00
2019-05-30T04:25:50.820Z,100.00
2019-05-30T04:28:21.870Z,100.00
2019-05-30T04:30:53.008Z,100.00
2019-05-30T04:33:32.290Z,100.00
2019-05-30T04:35:56.366Z,100.00
2019-05-30T04:38:27.228Z,100.00
2019-05-30T04:40:58.109Z,100.00
2019-05-30T04:43:29.142Z,100.00
2019-05-30T04:46:00.426Z,100.00
2019-05-30T04:48:31.958Z,100.00
2019-05-30T04:51:02.778Z,100.00
2019-05-30T04:53:33.899Z,100.00
2019-05-30T04:56:04.867Z,100.00
2019-05-30T04:58:41.221Z,100.00
2019-05-30T05:01:08.704Z,100.00
2019-05-30T05:03:45.778Z,100.00
2019-05-30T05:06:13.792Z,100.00
2019-05-30T05:08:44.942Z,100.00
2019-05-30T05:11:18.697Z,100.00
2019-05-30T05:13:48.415Z,100.00
2019-05-30T05:16:31.070Z,100.00
2019-05-30T05:18:53.292Z,100.00
2019-05-30T05:21:24.106Z,100.00
2019-05-30T05:23:55.565Z,100.00
2019-05-30T05:26:26.869Z,100.00
2019-05-30T05:28:57.915Z,100.00
2019-05-30T05:31:29.016Z,100.00
2019-05-30T05:34:00.082Z,100.00
2019-05-30T05:36:30.883Z,100.00
2019-05-30T05:39:01.682Z,100.00
2019-05-30T05:41:33.991Z,100.00
2019-05-30T05:44:05.054Z,100.00
2019-05-30T05:46:35.950Z,100.00
2019-05-30T05:49:07.067Z,97.64
2019-05-30T05:51:37.945Z,98.48
2019-05-30T05:54:09.292Z,95.77
2019-05-30T05:56:40.431Z,90.41
2019-05-30T05:59:11.307Z,91.75
2019-05-30T06:01:42.384Z,89.70
2019-05-30T06:04:13.843Z,85.09
2019-05-30T06:06:44.758Z,86.95
2019-05-30T06:09:16.483Z,87.82
2019-05-30T06:11:49.127Z,88.63
2019-05-30T06:14:21.785Z,90.08
2019-05-30T06:16:55.732Z,89.90
2019-05-30T06:19:25.520Z,91.52
2019-05-30T06:21:56.332Z,89.07
2019-05-30T06:24:27.899Z,90.78
2019-05-30T06:26:58.756Z,91.32
2019-05-30T06:29:29.549Z,89.58
2019-05-30T06:32:00.851Z,89.96
2019-05-30T06:34:38.776Z,90.38
2019-05-30T06:37:05.917Z,88.99
2019-05-30T06:39:36.961Z,89.33
2019-05-30T06:42:08.070Z,86.93
2019-05-30T06:44:39.192Z,86.93
2019-05-30T06:47:10.076Z,85.99
2019-05-30T06:49:41.242Z,83.95
2019-05-30T06:52:12.127Z,81.77
2019-05-30T06:54:43.450Z,78.07
2019-05-30T06:57:14.465Z,77.40
2019-05-30T06:59:45.328Z,74.09
2019-05-30T07:02:16.433Z,73.11
2019-05-30T07:04:52.151Z,72.17
2019-05-30T07:07:20.097Z,71.24
2019-05-30T07:09:50.989Z,70.98
2019-05-30T07:12:22.978Z,69.96
2019-05-30T07:14:54.046Z,68.50
2019-05-30T07:17:25.239Z,68.21
2019-05-30T07:19:56.277Z,65.35
2019-05-30T07:22:27.746Z,65.46
2019-05-30T07:24:58.558Z,64.84
2019-05-30T07:27:29.904Z,64.67
2019-05-30T07:30:01.259Z,64.42
2019-05-30T07:32:32.209Z,61.42
2019-05-30T07:35:07.265Z,63.85
2019-05-30T07:37:35.981Z,60.72
2019-05-30T07:40:09.865Z,62.08
2019-05-30T07:42:40.656Z,62.98
2019-05-30T07:45:12.215Z,64.07
2019-05-30T07:47:44.226Z,66.78
2019-05-30T07:50:15.580Z,64.31
2019-05-30T07:52:46.376Z,64.89
2019-05-30T07:55:17.259Z,62.20
2019-05-30T07:57:48.312Z,60.11
2019-05-30T08:00:19.789Z,59.44
2019-05-30T08:02:50.662Z,62.76
2019-05-30T08:05:24.467Z,61.27
2019-05-30T08:07:54.104Z,58.97
2019-05-30T08:10:24.895Z,58.67
2019-05-30T08:12:56.245Z,62.06
2019-05-30T08:15:27.374Z,59.25
2019-05-30T08:17:58.267Z,59.84
2019-05-30T08:20:29.636Z,59.62
2019-05-30T08:23:00.447Z,61.86
2019-05-30T08:25:32.206Z,63.38
2019-05-30T08:28:03.074Z,62.60
2019-05-30T08:30:34.595Z,63.22
2019-05-30T08:33:05.718Z,62.73
2019-05-30T08:35:48.742Z,62.68
2019-05-30T08:38:09.024Z,61.09
2019-05-30T08:40:39.890Z,59.87
2019-05-30T08:43:11.905Z,62.39
2019-05-30T08:45:42.693Z,61.66
2019-05-30T08:48:13.589Z,61.76
2019-05-30T08:50:44.881Z,60.25
2019-05-30T08:53:16.026Z,62.70
2019-05-30T08:55:47.378Z,59.59
2019-05-30T08:58:18.320Z,60.26
2019-05-30T09:00:49.444Z,61.36
2019-05-30T09:03:20.315Z,58.37
2019-05-30T09:06:03.006Z,57.47
2019-05-30T09:08:24.100Z,58.18
2019-05-30T09:10:54.968Z,59.03
2019-05-30T09:13:25.986Z,58.26
2019-05-30T09:15:56.850Z,58.67
2019-05-30T09:18:27.716Z,58.95
2019-05-30T09:20:58.842Z,57.54
2019-05-30T09:23:29.606Z,56.88
2019-05-30T09:26:00.635Z,56.82
2019-05-30T09:28:31.580Z,52.69
2019-05-30T09:31:02.441Z,54.53
2019-05-30T09:33:33.542Z,56.07
2019-05-30T09:36:13.029Z,57.10
2019-05-30T09:38:37.404Z,56.09
2019-05-30T09:41:08.566Z,56.32
2019-05-30T09:43:39.881Z,53.72
2019-05-30T09:46:11.932Z,54.81
2019-05-30T09:48:43.733Z,52.64
2019-05-30T09:51:16.021Z,51.52
2019-05-30T09:53:46.829Z,50.68
2019-05-30T09:56:17.891Z,50.88
2019-05-30T09:58:49.775Z,51.36
2019-05-30T10:01:21.633Z,49.39
2019-05-30T10:03:52.669Z,47.47
2019-05-30T10:06:29.641Z,49.37
2019-05-30T10:08:56.539Z,47.21
2019-05-30T10:11:27.482Z,48.36
2019-05-30T10:13:59.533Z,47.97
2019-05-30T10:16:30.851Z,50.75
2019-05-30T10:19:01.642Z,46.49
2019-05-30T10:21:32.780Z,47.01
2019-05-30T10:24:03.924Z,46.06
2019-05-30T10:26:34.800Z,44.44
2019-05-30T10:29:05.673Z,43.04
2019-05-30T10:31:36.576Z,43.65
2019-05-30T10:34:07.550Z,42.47
2019-05-30T10:36:44.295Z,40.97
2019-05-30T10:39:11.461Z,43.02
2019-05-30T10:41:42.336Z,42.19
2019-05-30T10:44:13.201Z,42.84
2019-05-30T10:46:44.089Z,39.68
2019-05-30T10:49:14.950Z,37.63
2019-05-30T10:51:47.774Z,39.68
2019-05-30T10:54:18.612Z,39.21
2019-05-30T10:56:50.002Z,40.03
2019-05-30T10:59:21.061Z,38.70
2019-05-30T11:01:53.035Z,39.97
2019-05-30T11:04:24.044Z,39.27
2019-05-30T11:07:18.180Z,40.56
2019-05-30T11:09:54.841Z,38.92
2019-05-30T11:12:26.109Z,40.73
2019-05-30T11:14:57.867Z,40.80
2019-05-30T11:17:28.947Z,42.17
2019-05-30T11:20:00.004Z,43.30
2019-05-30T11:22:31.386Z,44.42
2019-05-30T11:25:02.180Z,45.43
2019-05-30T11:27:33.049Z,45.53
2019-05-30T11:30:04.578Z,47.23
2019-05-30T11:32:35.487Z,47.17
2019-05-30T11:35:06.722Z,46.39
2019-05-30T11:37:37.747Z,46.14
2019-05-30T11:40:09.896Z,45.03
2019-05-30T11:42:40.905Z,45.16
2019-05-30T11:45:12.731Z,43.67
2019-05-30T11:47:44.085Z,44.85
2019-05-30T11:50:15.359Z,43.44
2019-05-30T11:52:46.206Z,45.31
2019-05-30T11:55:17.137Z,45.92
2019-05-30T11:57:48.013Z,43.71
2019-05-30T12:00:18.952Z,44.14
2019-05-30T12:02:50.223Z,45.69
2019-05-30T12:05:21.341Z,45.03
2019-05-30T12:07:52.794Z,44.66
2019-05-30T12:10:24.129Z,46.01
2019-05-30T12:12:55.341Z,46.17
2019-05-30T12:15:26.268Z,43.85
2019-05-30T12:17:57.466Z,43.50
2019-05-30T12:20:29.601Z,43.06
2019-05-30T12:23:02.122Z,43.91
2019-05-30T12:25:34.438Z,44.08
2019-05-30T12:28:05.395Z,44.50
2019-05-30T12:30:36.246Z,43.45
2019-05-30T12:33:07.374Z,43.70
2019-05-30T12:35:38.509Z,43.56
2019-05-30T12:38:09.612Z,43.50
2019-05-30T12:40:40.438Z,42.34
2019-05-30T12:43:11.602Z,43.66
2019-05-30T12:45:42.732Z,43.41
2019-05-30T12:48:13.533Z,42.32
2019-05-30T12:50:44.337Z,44.29
2019-05-30T12:53:15.451Z,44.48
2019-05-30T12:55:46.596Z,44.42
2019-05-30T12:58:17.660Z,44.38
2019-05-30T13:00:48.932Z,41.05
2019-05-30T13:03:20.060Z,40.31
2019-05-30T13:05:50.852Z,43.90
2019-05-30T13:08:22.252Z,45.73
2019-05-30T13:10:55.363Z,45.31
2019-05-30T13:13:26.255Z,42.93
2019-05-30T13:15:57.206Z,44.61
2019-05-30T13:18:28.329Z,44.94
2019-05-30T13:20:59.992Z,46.11
2019-05-30T13:23:30.850Z,41.86
2019-05-30T13:26:02.043Z,45.33
2019-05-30T13:28:32.763Z,45.29
2019-05-30T13:31:04.494Z,45.64
2019-05-30T13:33:38.301Z,46.12
2019-05-30T13:36:08.252Z,44.00
2019-05-30T13:38:39.275Z,47.15
2019-05-30T13:41:10.317Z,43.97
2019-05-30T13:43:41.172Z,42.06
2019-05-30T13:46:11.982Z,45.51
2019-05-30T13:48:42.943Z,44.16
2019-05-30T13:51:14.044Z,45.31
2019-05-30T13:53:45.178Z,45.41
2019-05-30T13:56:16.680Z,45.86
2019-05-30T13:58:47.703Z,46.58
2019-05-30T14:01:18.808Z,46.22
2019-05-30T14:03:50.536Z,46.04
2019-05-30T14:06:21.416Z,49.24
2019-05-30T14:08:53.029Z,47.22
2019-05-30T14:11:23.908Z,48.85
2019-05-30T14:13:55.046Z,48.60
2019-05-30T14:16:25.930Z,47.29
2019-05-30T14:18:56.755Z,48.26
2019-05-30T14:21:27.570Z,48.41
2019-05-30T14:23:58.387Z,48.25
2019-05-30T14:26:29.277Z,46.27
2019-05-30T14:29:03.974Z,47.78
2019-05-30T14:31:35.119Z,47.96
2019-05-30T14:34:06.101Z,46.86
2019-05-30T14:36:37.000Z,46.93
2019-05-30T14:39:09.044Z,48.58
2019-05-30T14:41:40.227Z,49.28
2019-05-30T14:44:11.434Z,49.12
2019-05-30T14:46:42.275Z,49.36
2019-05-30T14:49:13.127Z,48.77
2019-05-30T14:51:44.001Z,48.75
2019-05-30T14:54:14.820Z,48.16
2019-05-30T14:56:46.172Z,49.51
2019-05-30T14:59:17.402Z,51.41
2019-05-30T15:01:48.643Z,49.91
2019-05-30T15:04:19.465Z,50.19
2019-05-30T15:06:50.577Z,53.11
2019-05-30T15:09:25.916Z,52.34
2019-05-30T15:11:53.948Z,49.71
2019-05-30T15:14:24.812Z,50.23
2019-05-30T15:16:55.858Z,50.37
2019-05-30T15:19:26.981Z,50.90
2019-05-30T15:21:57.784Z,52.08
2019-05-30T15:24:29.089Z,50.87
2019-05-30T15:27:00.080Z,50.12
2019-05-30T15:29:30.879Z,49.19
2019-05-30T15:32:01.933Z,49.69
2019-05-30T15:34:32.965Z,50.46
2019-05-30T15:37:04.082Z,50.38
2019-05-30T15:39:35.138Z,51.30
2019-05-30T15:42:07.222Z,51.05
2019-05-30T15:44:38.043Z,51.03
2019-05-30T15:47:09.940Z,51.90
2019-05-30T15:49:40.772Z,52.05
2019-05-30T15:52:13.224Z,53.42
2019-05-30T15:54:44.121Z,53.20
2019-05-30T15:57:15.703Z,52.58
2019-05-30T15:59:46.498Z,53.89
2019-05-30T16:02:18.214Z,51.66
2019-05-30T16:04:49.051Z,53.34
2019-05-30T16:07:20.859Z,53.22
2019-05-30T16:09:51.901Z,54.69
2019-05-30T16:12:24.109Z,53.26
2019-05-30T16:14:54.975Z,53.49
2019-05-30T16:17:26.038Z,53.24
2019-05-30T16:19:57.266Z,54.50
2019-05-30T16:22:28.080Z,58.50
2019-05-30T16:24:58.965Z,57.45
2019-05-30T16:27:31.201Z,57.26
2019-05-30T16:30:03.040Z,56.18
2019-05-30T16:32:35.642Z,56.29
2019-05-30T16:35:07.025Z,57.78
2019-05-30T16:37:38.807Z,58.02
2019-05-30T16:40:12.599Z,60.01
2019-05-30T16:42:43.980Z,60.17
2019-05-30T16:45:20.274Z,59.05
2019-05-30T16:47:49.386Z,57.73
2019-05-30T16:50:23.438Z,58.90
2019-05-30T16:52:55.525Z,62.30
2019-05-30T16:55:27.584Z,62.95
2019-05-30T16:57:58.867Z,64.83
2019-05-30T17:00:30.038Z,65.31
2019-05-30T17:03:01.111Z,65.60
2019-05-30T17:05:32.315Z,65.24
2019-05-30T17:08:03.286Z,67.30
2019-05-30T17:10:34.161Z,67.13
2019-05-30T17:13:05.038Z,62.53
2019-05-30T17:15:36.136Z,69.36
2019-05-30T17:18:07.249Z,67.15
2019-05-30T17:20:38.118Z,64.50
2019-05-30T17:23:09.157Z,67.97
2019-05-30T17:25:40.517Z,71.35
2019-05-30T17:28:14.799Z,73.62
2019-05-30T17:30:44.411Z,73.22
2019-05-30T17:33:17.758Z,71.42
2019-05-30T17:35:48.397Z,68.19
2019-05-30T17:38:20.412Z,70.51
2019-05-30T17:40:51.251Z,71.58
2019-05-30T17:43:22.930Z,71.85
2019-05-30T17:45:53.846Z,74.51
2019-05-30T17:48:25.643Z,68.88
2019-05-30T17:50:56.636Z,63.96
2019-05-30T17:53:28.034Z,64.47
2019-05-30T17:55:59.582Z,59.96
2019-05-30T17:58:30.913Z,60.77
2019-05-30T18:01:02.047Z,60.17
2019-05-30T18:03:32.868Z,61.00
2019-05-30T18:06:04.048Z,61.50
2019-05-30T18:08:34.851Z,60.53
2019-05-30T18:11:05.710Z,62.02
2019-05-30T18:13:37.106Z,67.58
2019-05-30T18:16:08.047Z,70.11
2019-05-30T18:18:38.926Z,69.37
2019-05-30T18:21:09.962Z,69.64
2019-05-30T18:23:40.772Z,69.44
2019-05-30T18:26:12.533Z,70.11
2019-05-30T18:28:43.741Z,71.93
2019-05-30T18:31:15.011Z,67.39
2019-05-30T18:33:46.067Z,66.93
2019-05-30T18:36:17.160Z,66.05
2019-05-30T18:38:48.069Z,67.25
2019-05-30T18:41:18.930Z,71.44
2019-05-30T18:43:49.899Z,72.29
2019-05-30T18:46:20.762Z,71.79
2019-05-30T18:48:51.634Z,74.68
2019-05-30T18:51:24.063Z,74.57
2019-05-30T18:53:55.319Z,76.29
2019-05-30T18:56:26.598Z,79.11
2019-05-30T18:58:57.705Z,80.33
2019-05-30T19:01:29.639Z,79.83
2019-05-30T19:04:01.951Z,81.30
2019-05-30T19:06:33.820Z,82.20
2019-05-30T19:09:06.793Z,82.65
2019-05-30T19:11:38.354Z,83.86
2019-05-30T19:14:09.307Z,84.09
2019-05-30T19:16:40.435Z,85.52
2019-05-30T19:19:11.314Z,85.88
2019-05-30T19:21:42.101Z,87.07
2019-05-30T19:24:13.065Z,87.84
2019-05-30T19:26:43.882Z,88.41
2019-05-30T19:29:14.752Z,88.26
2019-05-30T19:31:46.418Z,89.39
2019-05-30T19:34:17.584Z,90.17
2019-05-30T19:36:48.625Z,90.98
2019-05-30T19:39:19.507Z,91.85
2019-05-30T19:41:56.698Z,92.47
2019-05-30T19:44:22.872Z,92.64
2019-05-30T19:46:53.918Z,93.07
2019-05-30T19:49:26.268Z,94.34
2019-05-30T19:51:57.342Z,95.07
2019-05-30T19:54:28.906Z,95.57
2019-05-30T19:57:00.287Z,95.55
2019-05-30T19:59:31.708Z,96.28
2019-05-30T20:02:03.029Z,97.25
2019-05-30T20:04:34.285Z,97.67
2019-05-30T20:07:05.141Z,98.22
2019-05-30T20:09:36.683Z,98.51
2019-05-30T20:12:09.210Z,98.75
2019-05-30T20:14:41.288Z,99.01
2019-05-30T20:17:12.109Z,99.65
2019-05-30T20:19:42.993Z,99.99
2019-05-30T20:22:13.785Z,100.00
2019-05-30T20:24:44.670Z,100.00
2019-05-30T20:27:15.758Z,100.00
2019-05-30T20:29:46.709Z,100.00
2019-05-30T20:32:17.539Z,100.00
2019-05-30T20:34:48.455Z,100.00
2019-05-30T20:37:19.874Z,100.00
2019-05-30T20:39:51.096Z,100.00
2019-05-30T20:42:22.170Z,100.00
2019-05-30T20:44:53.063Z,100.00
2019-05-30T20:47:23.985Z,100.00
2019-05-30T20:49:55.192Z,100.00
2019-05-30T20:52:26.514Z,100.00
2019-05-30T20:54:57.331Z,100.00
2019-05-30T20:57:28.468Z,100.00
2019-05-30T20:59:59.539Z,100.00
2019-05-30T21:02:30.412Z,100.00
2019-05-30T21:05:01.540Z,100.00
2019-05-30T21:07:32.713Z,100.00
2019-05-30T21:10:04.391Z,100.00
2019-05-30T21:12:39.327Z,100.00
2019-05-30T21:15:08.603Z,100.00
2019-05-30T21:17:39.766Z,100.00
2019-05-30T21:20:11.984Z,100.00
2019-05-30T21:22:42.804Z,100.00
2019-05-30T21:25:14.168Z,100.00
2019-05-30T21:27:45.301Z,100.00
2019-05-30T21:30:17.794Z,100.00
2019-05-30T21:32:48.923Z,100.00
2019-05-30T21:35:19.926Z,100.00
2019-05-30T21:37:51.057Z,100.00
2019-05-30T21:40:21.951Z,100.00
2019-05-30T21:43:04.730Z,100.00
2019-05-30T21:45:25.415Z,100.00
2019-05-30T21:47:56.304Z,100.00
2019-05-30T21:50:27.128Z,100.00
2019-05-30T21:52:58.222Z,100.00
2019-05-30T21:55:29.624Z,100.00
2019-05-30T21:58:00.434Z,100.00
2019-05-30T22:01:36.971Z,100.00
2019-05-30T22:04:08.378Z,100.00
2019-05-30T22:06:40.752Z,100.00
2019-05-30T22:09:11.786Z,100.00
2019-05-30T22:11:43.654Z,100.00
2019-05-30T22:14:14.774Z,100.00
2019-05-30T22:16:46.172Z,100.00
2019-05-30T22:19:17.621Z,100.00
2019-05-30T22:21:48.761Z,100.00
2019-05-30T22:24:19.654Z,100.00
2019-05-30T22:26:50.801Z,100.00
2019-05-30T22:29:22.130Z,100.00
2019-05-30T22:31:53.519Z,100.00
2019-05-30T22:34:24.490Z,100.00
2019-05-30T22:36:55.306Z,100.00
2019-05-30T22:39:26.894Z,100.00
2019-05-30T22:41:57.714Z,100.00
2019-05-30T22:44:29.559Z,100.00
2019-05-30T22:47:00.396Z,100.00
2019-05-30T22:49:31.689Z,100.00
2019-05-30T22:52:02.850Z,100.00
2019-05-30T22:54:33.886Z,100.00
2019-05-30T22:57:04.716Z,100.00
2019-05-30T22:59:35.522Z,100.00
2019-05-30T23:02:06.421Z,100.00
2019-05-30T23:04:37.696Z,100.00
2019-05-30T23:07:08.589Z,100.00
2019-05-30T23:09:39.465Z,100.00
2019-05-30T23:12:10.443Z,100.00
2019-05-30T23:14:41.325Z,100.00
2019-05-30T23:17:12.900Z,100.00
2019-05-30T23:19:44.101Z,100.00
2019-05-30T23:22:15.330Z,100.00
2019-05-30T23:24:47.143Z,100.00
2019-05-30T23:27:18.011Z,100.00
2019-05-30T23:29:49.742Z,100.00
2019-05-30T23:32:21.865Z,100.00
2019-05-30T23:34:52.746Z,100.00
2019-05-30T23:37:23.562Z,100.00
2019-05-30T23:39:55.001Z,100.00
2019-05-30T23:42:25.992Z,100.00
2019-05-30T23:44:57.516Z,100.00
2019-05-30T23:47:28.885Z,100.00
2019-05-30T23:50:00.409Z,100.00
2019-05-30T23:52:31.242Z,100.00
2019-05-30T23:55:02.497Z,100.00
2019-05-30T23:57:34.705Z,100.00
